sensor_id;sensor_type;location;lat;lon;timestamp;pressure;altitude;pressure_sealevel;temperature;humidity
44531;BME280;30240;47.418;0.700;2023-04-09T00:01:28;100987.09106445312;;;9.6;73.44
44531;BME280;30240;47.418;0.700;2023-04-09T00:03:53;100984.95483398438;;;9.61;73.57
44531;BME280;30240;47.418;0.700;2023-04-09T00:06:19;100984.95483398438;;;9.61;73.57
44531;BME280;30240;47.418;0.700;2023-04-09T00:08:43;100987.43896484375;;;9.54;73.53
44531;BME280;30240;47.418;0.700;2023-04-09T00:11:08;100985.68725585938;;;9.6;73.55
44531;BME280;30240;47.418;0.700;2023-04-09T00:13:33;100981.3720703125;;;9.49;73.71
44531;BME280;30240;47.418;0.700;2023-04-09T00:15:59;100982.56225585938;;;9.49;73.78
44531;BME280;30240;47.418;0.700;2023-04-09T00:18:24;100982.56225585938;;;9.49;73.78
44531;BME280;30240;47.418;0.700;2023-04-09T00:20:49;100978.14331054688;;;9.43;73.79
44531;BME280;30240;47.418;0.700;2023-04-09T00:23:13;100974.4384765625;;;9.44;73.74
44531;BME280;30240;47.418;0.700;2023-04-09T00:25:38;100974.93896484375;;;9.29;73.96
44531;BME280;30240;47.418;0.700;2023-04-09T00:28:04;100976.92260742188;;;9.25;74.25
44531;BME280;30240;47.418;0.700;2023-04-09T00:30:29;100976.92260742188;;;9.25;74.25
44531;BME280;30240;47.418;0.700;2023-04-09T00:32:54;100978.45458984375;;;9.07;74.51
44531;BME280;30240;47.418;0.700;2023-04-09T00:35:18;100981.32934570312;;;9.01;74.71
44531;BME280;30240;47.418;0.700;2023-04-09T00:37:43;100977.50244140625;;;8.92;74.96
44531;BME280;30240;47.418;0.700;2023-04-09T00:40:09;100975.81176757812;;;8.97;75.01
44531;BME280;30240;47.418;0.700;2023-04-09T00:42:35;100975.81176757812;;;8.97;75.01
44531;BME280;30240;47.418;0.700;2023-04-09T00:44:59;100974.24926757812;;;8.92;75.08
44531;BME280;30240;47.418;0.700;2023-04-09T00:47:24;100969.54956054688;;;8.88;75.16
44531;BME280;30240;47.418;0.700;2023-04-09T00:49:49;100971.12426757812;;;8.8;75.23
44531;BME280;30240;47.418;0.700;2023-04-09T00:52:13;100969.89135742188;;;8.79;75.36
44531;BME280;30240;47.418;0.700;2023-04-09T00:54:38;100966.60766601562;;;8.8;75.22
44531;BME280;30240;47.418;0.700;2023-04-09T00:57:03;100966.60766601562;;;8.8;75.22
44531;BME280;30240;47.418;0.700;2023-04-09T00:59:28;100961.21826171875;;;8.8;75.14
44531;BME280;30240;47.418;0.700;2023-04-09T01:01:54;100960.84594726562;;;8.79;75.31
44531;BME280;30240;47.418;0.700;2023-04-09T01:04:19;100960.62622070312;;;8.77;75.31
44531;BME280;30240;47.418;0.700;2023-04-09T01:06:47;100964.09912109375;;;8.77;75.33
44531;BME280;30240;47.418;0.700;2023-04-09T01:09:13;100964.09912109375;;;8.77;75.33
44531;BME280;30240;47.418;0.700;2023-04-09T01:11:37;100962.6708984375;;;8.8;75.3
44531;BME280;30240;47.418;0.700;2023-04-09T01:14:04;100958.59985351562;;;8.69;75.34
44531;BME280;30240;47.418;0.700;2023-04-09T01:16:24;100953.7841796875;;;8.62;75.46
44531;BME280;30240;47.418;0.700;2023-04-09T01:18:51;100949.4873046875;;;8.62;75.53
44531;BME280;30240;47.418;0.700;2023-04-09T01:21:16;100949.4873046875;;;8.62;75.53
44531;BME280;30240;47.418;0.700;2023-04-09T01:23:44;100950.439453125;;;8.56;75.84
44531;BME280;30240;47.418;0.700;2023-04-09T01:26:09;100951.8310546875;;;8.57;75.74
44531;BME280;30240;47.418;0.700;2023-04-09T01:28:31;100953.7353515625;;;8.42;75.83
44531;BME280;30240;47.418;0.700;2023-04-09T01:30:57;100953.08837890625;;;8.38;76.1
44531;BME280;30240;47.418;0.700;2023-04-09T01:33:19;100953.08837890625;;;8.38;76.1
44531;BME280;30240;47.418;0.700;2023-04-09T01:35:45;100946.6064453125;;;8.35;76.01
44531;BME280;30240;47.418;0.700;2023-04-09T01:38:09;100949.13940429688;;;8.35;76.23
44531;BME280;30240;47.418;0.700;2023-04-09T01:40:34;100944.06127929688;;;8.21;76.29
44531;BME280;30240;47.418;0.700;2023-04-09T01:43:00;100943.43872070312;;;8.11;76.57
44531;BME280;30240;47.418;0.700;2023-04-09T01:45:24;100943.43872070312;;;8.11;76.57
44531;BME280;30240;47.418;0.700;2023-04-09T01:47:49;100943.0908203125;;;8.13;76.56
44531;BME280;30240;47.418;0.700;2023-04-09T01:50:14;100939.5751953125;;;8.15;76.67
44531;BME280;30240;47.418;0.700;2023-04-09T01:52:39;100942.21801757812;;;8.01;77.06
44531;BME280;30240;47.418;0.700;2023-04-09T01:55:04;100939.00146484375;;;7.94;77.24
44531;BME280;30240;47.418;0.700;2023-04-09T01:57:29;100939.00146484375;;;7.94;77.24
44531;BME280;30240;47.418;0.700;2023-04-09T01:59:53;100944.80590820312;;;7.87;77.35
44531;BME280;30240;47.418;0.700;2023-04-09T02:02:23;100938.916015625;;;7.9;77.56
44531;BME280;30240;47.418;0.700;2023-04-09T02:02:27;100938.916015625;;;7.9;77.56
44531;BME280;30240;47.418;0.700;2023-04-09T02:02:32;100938.916015625;;;7.9;77.56
44531;BME280;30240;47.418;0.700;2023-04-09T02:04:46;100928.57666015625;;;7.78;77.9
44531;BME280;30240;47.418;0.700;2023-04-09T02:07:11;100924.54833984375;;;7.68;78.04
44531;BME280;30240;47.418;0.700;2023-04-09T02:09:35;100924.54833984375;;;7.68;78.04
44531;BME280;30240;47.418;0.700;2023-04-09T02:12:02;100927.06909179688;;;7.72;78.01
44531;BME280;30240;47.418;0.700;2023-04-09T02:14:24;100924.7314453125;;;7.75;77.98
44531;BME280;30240;47.418;0.700;2023-04-09T02:16:48;100923.29711914062;;;7.58;78.35
44531;BME280;30240;47.418;0.700;2023-04-09T02:19:13;100919.921875;;;7.61;78.35
44531;BME280;30240;47.418;0.700;2023-04-09T02:21:38;100919.921875;;;7.61;78.35
44531;BME280;30240;47.418;0.700;2023-04-09T02:24:04;100916.76025390625;;;7.48;78.76
44531;BME280;30240;47.418;0.700;2023-04-09T02:26:29;100919.61669921875;;;7.45;78.87
44531;BME280;30240;47.418;0.700;2023-04-09T02:28:54;100915.11840820312;;;7.43;79.0
44531;BME280;30240;47.418;0.700;2023-04-09T02:31:19;100913.83056640625;;;7.38;79.13
44531;BME280;30240;47.418;0.700;2023-04-09T02:33:44;100910.0341796875;;;7.35;79.3
44531;BME280;30240;47.418;0.700;2023-04-09T02:36:10;100910.0341796875;;;7.35;79.3
44531;BME280;30240;47.418;0.700;2023-04-09T02:38:33;100909.60693359375;;;7.43;79.18
44531;BME280;30240;47.418;0.700;2023-04-09T02:40:58;100902.2705078125;;;7.3;79.42
44531;BME280;30240;47.418;0.700;2023-04-09T02:43:24;100899.37744140625;;;7.31;79.42
44531;BME280;30240;47.418;0.700;2023-04-09T02:45:48;100895.28198242188;;;7.31;79.33
44531;BME280;30240;47.418;0.700;2023-04-09T02:48:14;100895.28198242188;;;7.31;79.33
44531;BME280;30240;47.418;0.700;2023-04-09T02:50:38;100887.82958984375;;;7.24;79.49
44531;BME280;30240;47.418;0.700;2023-04-09T02:53:03;100899.38354492188;;;7.23;79.82
44531;BME280;30240;47.418;0.700;2023-04-09T02:55:29;100892.46826171875;;;7.19;79.77
44531;BME280;30240;47.418;0.700;2023-04-09T02:57:53;100889.73388671875;;;7.14;79.86
44531;BME280;30240;47.418;0.700;2023-04-09T03:00:18;100889.73388671875;;;7.14;79.86
44531;BME280;30240;47.418;0.700;2023-04-09T03:02:44;100895.05615234375;;;7.13;79.98
44531;BME280;30240;47.418;0.700;2023-04-09T03:05:08;100887.09106445312;;;7.12;80.13
44531;BME280;30240;47.418;0.700;2023-04-09T03:07:33;100891.59545898438;;;7.13;80.15
44531;BME280;30240;47.418;0.700;2023-04-09T03:09:58;100885.6689453125;;;7.1;80.23
44531;BME280;30240;47.418;0.700;2023-04-09T03:12:24;100885.6689453125;;;7.1;80.23
44531;BME280;30240;47.418;0.700;2023-04-09T03:14:49;100884.68627929688;;;7.02;80.38
44531;BME280;30240;47.418;0.700;2023-04-09T03:17:13;100886.48681640625;;;7.05;80.4
44531;BME280;30240;47.418;0.700;2023-04-09T03:19:38;100888.65356445312;;;7.05;80.55
44531;BME280;30240;47.418;0.700;2023-04-09T03:22:03;100884.375;;;7.06;80.4
44531;BME280;30240;47.418;0.700;2023-04-09T03:24:30;100884.375;;;7.06;80.4
44531;BME280;30240;47.418;0.700;2023-04-09T03:26:53;100885.60791015625;;;7.03;80.53
44531;BME280;30240;47.418;0.700;2023-04-09T03:29:18;100883.9111328125;;;7.06;80.43
44531;BME280;30240;47.418;0.700;2023-04-09T03:31:43;100884.72900390625;;;6.96;80.67
44531;BME280;30240;47.418;0.700;2023-04-09T03:34:08;100882.04956054688;;;6.97;80.81
44531;BME280;30240;47.418;0.700;2023-04-09T03:36:33;100882.04956054688;;;6.97;80.81
44531;BME280;30240;47.418;0.700;2023-04-09T03:38:58;100881.79931640625;;;6.97;80.87
44531;BME280;30240;47.418;0.700;2023-04-09T03:41:24;100877.77099609375;;;6.92;80.96
44531;BME280;30240;47.418;0.700;2023-04-09T03:43:49;100880.6396484375;;;6.89;81.11
44531;BME280;30240;47.418;0.700;2023-04-09T03:46:14;100884.87548828125;;;6.92;81.1
44531;BME280;30240;47.418;0.700;2023-04-09T03:48:38;100884.87548828125;;;6.92;81.1
44531;BME280;30240;47.418;0.700;2023-04-09T03:51:04;100879.15649414062;;;6.87;81.27
44531;BME280;30240;47.418;0.700;2023-04-09T03:53:29;100887.20092773438;;;6.84;81.39
44531;BME280;30240;47.418;0.700;2023-04-09T03:55:53;100882.98950195312;;;6.84;81.44
44531;BME280;30240;47.418;0.700;2023-04-09T03:58:18;100883.28857421875;;;6.79;81.64
44531;BME280;30240;47.418;0.700;2023-04-09T04:00:43;100881.640625;;;6.77;81.59
44531;BME280;30240;47.418;0.700;2023-04-09T04:03:10;100881.640625;;;6.77;81.59
44531;BME280;30240;47.418;0.700;2023-04-09T04:05:33;100883.09326171875;;;6.74;81.7
44531;BME280;30240;47.418;0.700;2023-04-09T04:07:58;100881.298828125;;;6.67;81.9
44531;BME280;30240;47.418;0.700;2023-04-09T04:10:23;100884.1064453125;;;6.63;82.23
44531;BME280;30240;47.418;0.700;2023-04-09T04:12:48;100885.0341796875;;;6.61;82.33
44531;BME280;30240;47.418;0.700;2023-04-09T04:15:13;100885.0341796875;;;6.61;82.33
44531;BME280;30240;47.418;0.700;2023-04-09T04:17:38;100881.15844726562;;;6.55;82.36
44531;BME280;30240;47.418;0.700;2023-04-09T04:20:04;100880.65795898438;;;6.57;82.5
44531;BME280;30240;47.418;0.700;2023-04-09T04:22:28;100882.861328125;;;6.54;82.61
44531;BME280;30240;47.418;0.700;2023-04-09T04:24:53;100892.49877929688;;;6.46;82.78
44531;BME280;30240;47.418;0.700;2023-04-09T04:27:18;100892.49877929688;;;6.46;82.78
44531;BME280;30240;47.418;0.700;2023-04-09T04:29:43;100890.771484375;;;6.4;82.98
44531;BME280;30240;47.418;0.700;2023-04-09T04:32:08;100888.75122070312;;;6.44;83.02
44531;BME280;30240;47.418;0.700;2023-04-09T04:34:34;100892.822265625;;;6.32;83.18
44531;BME280;30240;47.418;0.700;2023-04-09T04:36:58;100890.3564453125;;;6.34;83.39
44531;BME280;30240;47.418;0.700;2023-04-09T04:39:23;100890.3564453125;;;6.34;83.39
44531;BME280;30240;47.418;0.700;2023-04-09T04:41:48;100886.57836914062;;;6.37;83.36
44531;BME280;30240;47.418;0.700;2023-04-09T04:44:13;100886.46850585938;;;6.36;83.33
44531;BME280;30240;47.418;0.700;2023-04-09T04:46:38;100893.00537109375;;;6.38;83.39
44531;BME280;30240;47.418;0.700;2023-04-09T04:49:03;100892.0166015625;;;6.29;83.55
44531;BME280;30240;47.418;0.700;2023-04-09T04:51:29;100892.0166015625;;;6.29;83.55
44531;BME280;30240;47.418;0.700;2023-04-09T04:53:53;100889.78271484375;;;6.26;83.68
44531;BME280;30240;47.418;0.700;2023-04-09T04:56:18;100891.07666015625;;;6.23;83.71
44531;BME280;30240;47.418;0.700;2023-04-09T04:58:44;100889.17846679688;;;6.25;83.83
44531;BME280;30240;47.418;0.700;2023-04-09T05:01:08;100897.12524414062;;;6.2;83.92
44531;BME280;30240;47.418;0.700;2023-04-09T05:03:33;100897.12524414062;;;6.2;83.92
44531;BME280;30240;47.418;0.700;2023-04-09T05:05:58;100901.19018554688;;;6.23;83.89
44531;BME280;30240;47.418;0.700;2023-04-09T05:08:23;100905.01708984375;;;6.22;83.92
44531;BME280;30240;47.418;0.700;2023-04-09T05:10:48;100907.65380859375;;;6.18;84.05
44531;BME280;30240;47.418;0.700;2023-04-09T05:13:13;100911.90795898438;;;6.16;84.19
44531;BME280;30240;47.418;0.700;2023-04-09T05:15:39;100911.90795898438;;;6.16;84.19
44531;BME280;30240;47.418;0.700;2023-04-09T05:18:03;100917.81005859375;;;6.18;83.92
44531;BME280;30240;47.418;0.700;2023-04-09T05:20:29;100912.82958984375;;;6.16;83.91
44531;BME280;30240;47.418;0.700;2023-04-09T05:22:54;100917.38891601562;;;6.19;84.09
44531;BME280;30240;47.418;0.700;2023-04-09T05:25:19;100920.8740234375;;;6.11;84.14
44531;BME280;30240;47.418;0.700;2023-04-09T05:27:44;100920.8740234375;;;6.11;84.14
44531;BME280;30240;47.418;0.700;2023-04-09T05:30:09;100926.25122070312;;;6.12;84.15
44531;BME280;30240;47.418;0.700;2023-04-09T05:32:33;100927.0751953125;;;6.15;84.37
44531;BME280;30240;47.418;0.700;2023-04-09T05:34:59;100930.57861328125;;;6.19;84.14
44531;BME280;30240;47.418;0.700;2023-04-09T05:37:24;100930.25512695312;;;6.12;84.29
44531;BME280;30240;47.418;0.700;2023-04-09T05:39:48;100931.31103515625;;;6.23;84.23
44531;BME280;30240;47.418;0.700;2023-04-09T05:42:13;100931.31103515625;;;6.23;84.23
44531;BME280;30240;47.418;0.700;2023-04-09T05:44:38;100931.89697265625;;;6.25;84.02
44531;BME280;30240;47.418;0.700;2023-04-09T05:47:03;100930.09643554688;;;6.19;84.06
44531;BME280;30240;47.418;0.700;2023-04-09T05:49:28;100928.955078125;;;6.29;84.08
44531;BME280;30240;47.418;0.700;2023-04-09T05:51:54;100929.04663085938;;;6.23;83.92
44531;BME280;30240;47.418;0.700;2023-04-09T05:54:18;100929.04663085938;;;6.23;83.92
44531;BME280;30240;47.418;0.700;2023-04-09T05:56:43;100930.84106445312;;;6.32;83.83
44531;BME280;30240;47.418;0.700;2023-04-09T05:59:08;100929.74853515625;;;6.37;83.61
44531;BME280;30240;47.418;0.700;2023-04-09T06:01:33;100925.390625;;;6.46;83.62
44531;BME280;30240;47.418;0.700;2023-04-09T06:03:58;100931.640625;;;6.41;83.62
44531;BME280;30240;47.418;0.700;2023-04-09T06:06:23;100931.640625;;;6.41;83.62
44531;BME280;30240;47.418;0.700;2023-04-09T06:08:48;100927.53295898438;;;6.54;83.42
44531;BME280;30240;47.418;0.700;2023-04-09T06:11:13;100932.30590820312;;;6.55;83.37
44531;BME280;30240;47.418;0.700;2023-04-09T06:13:38;100926.11083984375;;;6.68;83.05
44531;BME280;30240;47.418;0.700;2023-04-09T06:16:04;100930.85327148438;;;6.7;83.1
44531;BME280;30240;47.418;0.700;2023-04-09T06:18:28;100930.85327148438;;;6.7;83.1
44531;BME280;30240;47.418;0.700;2023-04-09T06:21:00;100928.515625;;;6.74;82.95
44531;BME280;30240;47.418;0.700;2023-04-09T06:23:18;100930.38940429688;;;6.74;82.67
44531;BME280;30240;47.418;0.700;2023-04-09T06:25:43;100935.21728515625;;;6.72;82.91
44531;BME280;30240;47.418;0.700;2023-04-09T06:28:08;100941.85791015625;;;6.89;82.63
44531;BME280;30240;47.418;0.700;2023-04-09T06:30:34;100941.85791015625;;;6.89;82.63
44531;BME280;30240;47.418;0.700;2023-04-09T06:32:58;100942.01049804688;;;6.96;82.48
44531;BME280;30240;47.418;0.700;2023-04-09T06:35:23;100945.42846679688;;;7.09;82.1
44531;BME280;30240;47.418;0.700;2023-04-09T06:37:48;100944.86083984375;;;7.13;82.07
44531;BME280;30240;47.418;0.700;2023-04-09T06:40:13;100943.64013671875;;;7.1;82.17
44531;BME280;30240;47.418;0.700;2023-04-09T06:42:38;100943.64013671875;;;7.1;82.17
44531;BME280;30240;47.418;0.700;2023-04-09T06:45:04;100940.88134765625;;;7.16;81.99
44531;BME280;30240;47.418;0.700;2023-04-09T06:47:28;100942.87719726562;;;7.2;81.99
44531;BME280;30240;47.418;0.700;2023-04-09T06:49:53;100945.8740234375;;;7.34;81.51
44531;BME280;30240;47.418;0.700;2023-04-09T06:52:18;100951.50756835938;;;7.41;81.62
44531;BME280;30240;47.418;0.700;2023-04-09T06:54:43;100951.50756835938;;;7.41;81.62
44531;BME280;30240;47.418;0.700;2023-04-09T06:57:08;100947.0458984375;;;7.47;81.37
44531;BME280;30240;47.418;0.700;2023-04-09T06:59:33;100950.18920898438;;;7.44;81.55
44531;BME280;30240;47.418;0.700;2023-04-09T07:01:59;100942.0166015625;;;7.4;81.78
44531;BME280;30240;47.418;0.700;2023-04-09T07:04:23;100944.68994140625;;;7.58;81.37
44531;BME280;30240;47.418;0.700;2023-04-09T07:06:49;100942.20581054688;;;7.8;80.9
44531;BME280;30240;47.418;0.700;2023-04-09T07:09:13;100942.20581054688;;;7.8;80.9
44531;BME280;30240;47.418;0.700;2023-04-09T07:11:38;100940.39306640625;;;7.85;80.58
44531;BME280;30240;47.418;0.700;2023-04-09T07:14:04;100938.6474609375;;;7.96;80.06
44531;BME280;30240;47.418;0.700;2023-04-09T07:16:28;100939.45922851562;;;8.17;79.98
44531;BME280;30240;47.418;0.700;2023-04-09T07:18:53;100939.9658203125;;;8.46;79.08
44531;BME280;30240;47.418;0.700;2023-04-09T07:21:19;100939.9658203125;;;8.46;79.08
44531;BME280;30240;47.418;0.700;2023-04-09T07:23:43;100933.62426757812;;;8.62;78.99
44531;BME280;30240;47.418;0.700;2023-04-09T07:26:08;100926.97143554688;;;9.26;77.47
44531;BME280;30240;47.418;0.700;2023-04-09T07:28:33;100925.78125;;;9.39;76.85
44531;BME280;30240;47.418;0.700;2023-04-09T07:31:00;100928.08837890625;;;9.84;76.37
44531;BME280;30240;47.418;0.700;2023-04-09T07:33:24;100928.08837890625;;;9.84;76.37
44531;BME280;30240;47.418;0.700;2023-04-09T07:35:49;100931.201171875;;;10.2;75.01
44531;BME280;30240;47.418;0.700;2023-04-09T07:38:14;100923.84643554688;;;10.09;74.81
44531;BME280;30240;47.418;0.700;2023-04-09T07:40:38;100926.11083984375;;;10.88;73.9
44531;BME280;30240;47.418;0.700;2023-04-09T07:43:04;100927.79541015625;;;11.26;72.52
44531;BME280;30240;47.418;0.700;2023-04-09T07:45:29;100927.79541015625;;;11.26;72.52
44531;BME280;30240;47.418;0.700;2023-04-09T07:47:54;100922.00927734375;;;11.19;71.61
44531;BME280;30240;47.418;0.700;2023-04-09T07:50:19;100915.19775390625;;;11.62;72.01
44531;BME280;30240;47.418;0.700;2023-04-09T07:52:43;100917.34619140625;;;11.89;71.13
44531;BME280;30240;47.418;0.700;2023-04-09T07:55:09;100920.67260742188;;;12.25;70.21
44531;BME280;30240;47.418;0.700;2023-04-09T07:57:34;100920.67260742188;;;12.25;70.21
44531;BME280;30240;47.418;0.700;2023-04-09T07:59:59;100920.06225585938;;;11.82;71.29
44531;BME280;30240;47.418;0.700;2023-04-09T08:02:24;100921.42333984375;;;11.78;71.13
44531;BME280;30240;47.418;0.700;2023-04-09T08:04:49;100928.09448242188;;;11.9;70.43
44531;BME280;30240;47.418;0.700;2023-04-09T08:07:14;100922.71728515625;;;12.51;70.07
44531;BME280;30240;47.418;0.700;2023-04-09T08:09:39;100922.71728515625;;;12.51;70.07
44531;BME280;30240;47.418;0.700;2023-04-09T08:12:04;100915.46630859375;;;12.92;69.08
44531;BME280;30240;47.418;0.700;2023-04-09T08:14:29;100912.04833984375;;;12.51;69.07
44531;BME280;30240;47.418;0.700;2023-04-09T08:16:54;100911.81030273438;;;12.79;69.21
44531;BME280;30240;47.418;0.700;2023-04-09T08:19:19;100916.5283203125;;;13.39;67.6
44531;BME280;30240;47.418;0.700;2023-04-09T08:21:43;100916.5283203125;;;13.39;67.6
44531;BME280;30240;47.418;0.700;2023-04-09T08:24:09;100912.20092773438;;;13.29;66.36
44531;BME280;30240;47.418;0.700;2023-04-09T08:26:33;100913.37280273438;;;13.25;67.14
44531;BME280;30240;47.418;0.700;2023-04-09T08:28:59;100912.6708984375;;;13.62;66.75
44531;BME280;30240;47.418;0.700;2023-04-09T08:31:24;100912.59155273438;;;13.85;66.14
44531;BME280;30240;47.418;0.700;2023-04-09T08:33:49;100912.59155273438;;;13.85;66.14
44531;BME280;30240;47.418;0.700;2023-04-09T08:36:14;100912.060546875;;;14.87;63.44
44531;BME280;30240;47.418;0.700;2023-04-09T08:38:38;100902.92358398438;;;13.77;63.75
44531;BME280;30240;47.418;0.700;2023-04-09T08:41:04;100897.8515625;;;14.26;62.73
44531;BME280;30240;47.418;0.700;2023-04-09T08:43:29;100913.818359375;;;15.25;62.14
44531;BME280;30240;47.418;0.700;2023-04-09T08:45:54;100917.85888671875;;;15.91;60.11
44531;BME280;30240;47.418;0.700;2023-04-09T08:48:19;100917.85888671875;;;15.91;60.11
44531;BME280;30240;47.418;0.700;2023-04-09T08:50:44;100918.2373046875;;;15.64;60.62
44531;BME280;30240;47.418;0.700;2023-04-09T08:53:09;100917.1875;;;15.47;60.41
44531;BME280;30240;47.418;0.700;2023-04-09T08:55:34;100913.330078125;;;16.52;59.27
44531;BME280;30240;47.418;0.700;2023-04-09T08:57:58;100911.13891601562;;;15.75;60.24
44531;BME280;30240;47.418;0.700;2023-04-09T09:00:24;100911.13891601562;;;15.75;60.24
44531;BME280;30240;47.418;0.700;2023-04-09T09:03:00;100903.46069335938;;;15.2;61.54
44531;BME280;30240;47.418;0.700;2023-04-09T09:05:14;100901.50146484375;;;15.15;62.04
44531;BME280;30240;47.418;0.700;2023-04-09T09:07:52;100900.1220703125;;;15.69;60.33
44531;BME280;30240;47.418;0.700;2023-04-09T09:10:04;100898.6572265625;;;16.01;60.63
44531;BME280;30240;47.418;0.700;2023-04-09T09:12:30;100898.6572265625;;;16.01;60.63
44531;BME280;30240;47.418;0.700;2023-04-09T09:14:53;100894.24438476562;;;15.72;60.33
44531;BME280;30240;47.418;0.700;2023-04-09T09:17:18;100888.94653320312;;;15.58;60.62
44531;BME280;30240;47.418;0.700;2023-04-09T09:19:44;100886.8896484375;;;16.97;58.55
44531;BME280;30240;47.418;0.700;2023-04-09T09:22:09;100883.58764648438;;;15.89;59.62
44531;BME280;30240;47.418;0.700;2023-04-09T09:24:45;100883.58764648438;;;15.89;59.62
44531;BME280;30240;47.418;0.700;2023-04-09T09:26:59;100900.5859375;;;14.29;63.37
44531;BME280;30240;47.418;0.700;2023-04-09T09:29:24;100903.47900390625;;;14.24;64.12
44531;BME280;30240;47.418;0.700;2023-04-09T09:31:50;100898.2177734375;;;14.55;62.5
44531;BME280;30240;47.418;0.700;2023-04-09T09:34:14;100891.455078125;;;15.18;60.55
44531;BME280;30240;47.418;0.700;2023-04-09T09:36:38;100891.455078125;;;15.18;60.55
44531;BME280;30240;47.418;0.700;2023-04-09T09:39:04;100884.62524414062;;;15.32;59.59
44531;BME280;30240;47.418;0.700;2023-04-09T09:41:29;100885.18676757812;;;15.89;59.4
44531;BME280;30240;47.418;0.700;2023-04-09T09:43:53;100881.73217773438;;;16.65;57.14
44531;BME280;30240;47.418;0.700;2023-04-09T09:46:20;100874.23706054688;;;16.64;56.98
44531;BME280;30240;47.418;0.700;2023-04-09T09:48:43;100874.23706054688;;;16.64;56.98
44531;BME280;30240;47.418;0.700;2023-04-09T09:51:10;100876.54418945312;;;16.9;56.82
44531;BME280;30240;47.418;0.700;2023-04-09T09:53:34;100877.45361328125;;;16.41;57.7
44531;BME280;30240;47.418;0.700;2023-04-09T09:55:59;100881.14013671875;;;15.5;60.91
44531;BME280;30240;47.418;0.700;2023-04-09T09:58:27;100881.08520507812;;;16.26;58.59
44531;BME280;30240;47.418;0.700;2023-04-09T10:00:50;100881.08520507812;;;16.26;58.59
44531;BME280;30240;47.418;0.700;2023-04-09T10:03:17;100873.095703125;;;17.24;56.12
44531;BME280;30240;47.418;0.700;2023-04-09T10:05:39;100872.3876953125;;;17.68;54.72
44531;BME280;30240;47.418;0.700;2023-04-09T10:08:04;100863.134765625;;;17.59;55.13
44531;BME280;30240;47.418;0.700;2023-04-09T10:10:29;100863.90380859375;;;18.22;53.63
44531;BME280;30240;47.418;0.700;2023-04-09T10:12:54;100857.06176757812;;;18.91;51.79
44531;BME280;30240;47.418;0.700;2023-04-09T10:15:19;100857.06176757812;;;18.91;51.79
44531;BME280;30240;47.418;0.700;2023-04-09T10:17:44;100850.50659179688;;;18.14;52.31
44531;BME280;30240;47.418;0.700;2023-04-09T10:20:10;100848.71215820312;;;18.21;53.19
44531;BME280;30240;47.418;0.700;2023-04-09T10:22:34;100854.57763671875;;;18.84;51.83
44531;BME280;30240;47.418;0.700;2023-04-09T10:24:59;100856.0302734375;;;18.62;52.68
44531;BME280;30240;47.418;0.700;2023-04-09T10:27:25;100856.0302734375;;;18.62;52.68
44531;BME280;30240;47.418;0.700;2023-04-09T10:29:49;100851.97143554688;;;18.18;52.64
44531;BME280;30240;47.418;0.700;2023-04-09T10:32:17;100850.1708984375;;;18.51;52.09
44531;BME280;30240;47.418;0.700;2023-04-09T10:34:40;100840.65551757812;;;19.35;50.58
44531;BME280;30240;47.418;0.700;2023-04-09T10:37:05;100832.11059570312;;;18.93;49.98
44531;BME280;30240;47.418;0.700;2023-04-09T10:39:30;100832.11059570312;;;18.93;49.98
44531;BME280;30240;47.418;0.700;2023-04-09T10:41:54;100837.19482421875;;;20.54;48.28
44531;BME280;30240;47.418;0.700;2023-04-09T10:44:19;100835.93139648438;;;20.11;49.63
44531;BME280;30240;47.418;0.700;2023-04-09T10:46:44;100844.84252929688;;;19.6;48.2
44531;BME280;30240;47.418;0.700;2023-04-09T10:49:10;100837.17041015625;;;20.01;46.09
44531;BME280;30240;47.418;0.700;2023-04-09T10:51:34;100837.17041015625;;;20.01;46.09
44531;BME280;30240;47.418;0.700;2023-04-09T10:53:58;100831.89086914062;;;20.33;45.09
44531;BME280;30240;47.418;0.700;2023-04-09T10:56:23;100825.88500976562;;;19.81;47.82
44531;BME280;30240;47.418;0.700;2023-04-09T10:58:48;100819.921875;;;19.23;47.33
44531;BME280;30240;47.418;0.700;2023-04-09T11:01:20;100815.68603515625;;;20.16;47.03
44531;BME280;30240;47.418;0.700;2023-04-09T11:03:43;100815.68603515625;;;20.16;47.03
44531;BME280;30240;47.418;0.700;2023-04-09T11:06:05;100815.68603515625;;;20.25;46.48
44531;BME280;30240;47.418;0.700;2023-04-09T11:08:29;100808.48999023438;;;20.51;45.18
44531;BME280;30240;47.418;0.700;2023-04-09T11:10:54;100815.07568359375;;;18.98;49.21
44531;BME280;30240;47.418;0.700;2023-04-09T11:13:19;100818.6279296875;;;20.71;45.89
44531;BME280;30240;47.418;0.700;2023-04-09T11:15:44;100818.6279296875;;;20.71;45.89
44531;BME280;30240;47.418;0.700;2023-04-09T11:18:13;100800.18920898438;;;19.12;47.37
44531;BME280;30240;47.418;0.700;2023-04-09T11:20:34;100815.00244140625;;;19.36;47.88
44531;BME280;30240;47.418;0.700;2023-04-09T11:22:59;100809.57641601562;;;20.41;44.52